Time;durP1;ratioP1;P1;durP2;ratioP2;P2;SDS_P1;SDS_P2;PMS_P1;PMS_P2;Temp;Humidity;BMP_temperature;BMP_pressure;BME280_temperature;BME280_humidity;BME280_pressure;Samples;Min_cycle;Max_cycle;Signal;HPM_P1;HPM_P2
2023/02/20 00:00:50;;;;;;;6.55;4.45;;;;;;;;;;6155071;23;20017;-87
2023/02/20 00:03:18;;;;;;;10.65;4.45;;;;;;;;;;6183016;23;20024;-87
2023/02/20 00:05:45;;;;;;;5.75;3.47;;;;;;;;;;6165134;23;20494;-86
2023/02/20 00:08:12;;;;;;;6.28;5.03;;;;;;;;;;6182035;23;20021;-87
2023/02/20 00:10:41;;;;;;;5.40;3.80;;;;;;;;;;6155698;23;20013;-87
2023/02/20 00:13:08;;;;;;;6.28;4.63;;;;;;;;;;6184970;23;20020;-87
2023/02/20 00:15:36;;;;;;;5.75;3.60;;;;;;;;;;6183350;23;20385;-86
2023/02/20 00:18:03;;;;;;;8.20;3.88;;;;;;;;;;6184601;23;20021;-87
2023/02/20 00:20:32;;;;;;;4.30;3.42;;;;;;;;;;6182558;23;20410;-87
2023/02/20 00:22:59;;;;;;;7.13;3.88;;;;;;;;;;6184356;23;20381;-88
2023/02/20 00:25:26;;;;;;;5.45;3.72;;;;;;;;;;6181745;23;20016;-86
2023/02/20 00:27:55;;;;;;;8.15;4.47;;;;;;;;;;6157513;23;20017;-86
2023/02/20 00:30:24;;;;;;;8.82;4.57;;;;;;;;;;6157572;23;20492;-87
2023/02/20 00:32:52;;;;;;;7.00;4.20;;;;;;;;;;6182677;23;20492;-87
2023/02/20 00:35:22;;;;;;;15.85;5.85;;;;;;;;;;6182566;23;20024;-87
2023/02/20 00:37:50;;;;;;;6.68;4.75;;;;;;;;;;6156960;23;20013;-86
2023/02/20 00:40:19;;;;;;;9.77;4.30;;;;;;;;;;6132777;23;20025;-87
2023/02/20 00:42:47;;;;;;;4.13;3.53;;;;;;;;;;6159827;23;20017;-87
2023/02/20 00:45:17;;;;;;;4.50;3.63;;;;;;;;;;6168557;23;20017;-87
2023/02/20 00:47:45;;;;;;;4.53;3.50;;;;;;;;;;6202733;23;20017;-88
2023/02/20 00:50:13;;;;;;;8.45;4.47;;;;;;;;;;6165729;23;20012;-87
2023/02/20 00:52:40;;;;;;;7.72;4.28;;;;;;;;;;6168962;23;20023;-87
2023/02/20 00:55:08;;;;;;;5.18;3.67;;;;;;;;;;6175448;23;20017;-87
2023/02/20 00:57:36;;;;;;;6.15;4.00;;;;;;;;;;6159217;23;20077;-86
2023/02/20 01:00:05;;;;;;;7.20;4.05;;;;;;;;;;6160238;23;20077;-89
2023/02/20 01:02:34;;;;;;;11.63;4.97;;;;;;;;;;6210879;23;20009;-86
2023/02/20 01:05:01;;;;;;;9.98;3.45;;;;;;;;;;6182870;23;20005;-87
2023/02/20 01:07:29;;;;;;;5.95;3.83;;;;;;;;;;6180115;23;20020;-87
2023/02/20 01:09:56;;;;;;;4.57;3.80;;;;;;;;;;6183885;23;20013;-87
2023/02/20 01:12:24;;;;;;;7.50;3.22;;;;;;;;;;6132095;23;20025;-87
2023/02/20 01:14:51;;;;;;;7.28;4.25;;;;;;;;;;6158510;23;20461;-87
2023/02/20 01:17:18;;;;;;;7.70;3.80;;;;;;;;;;6167547;23;20031;-87
2023/02/20 01:19:47;;;;;;;7.88;3.42;;;;;;;;;;6157768;23;20013;-86
2023/02/20 01:22:14;;;;;;;8.18;3.92;;;;;;;;;;6176708;23;20242;-87
2023/02/20 01:24:42;;;;;;;5.45;3.65;;;;;;;;;;6183307;23;20479;-86
2023/02/20 01:27:10;;;;;;;5.38;4.28;;;;;;;;;;6182090;23;20025;-87
2023/02/20 01:29:37;;;;;;;9.05;5.38;;;;;;;;;;6156868;23;20035;-87
2023/02/20 01:32:04;;;;;;;5.85;4.05;;;;;;;;;;6180253;23;20020;-87
2023/02/20 01:34:32;;;;;;;7.75;5.15;;;;;;;;;;6181945;23;20345;-86
2023/02/20 01:37:00;;;;;;;13.25;4.55;;;;;;;;;;6181636;23;20348;-86
2023/02/20 01:39:29;;;;;;;7.15;4.75;;;;;;;;;;6207175;23;20353;-87
2023/02/20 01:41:59;;;;;;;7.60;4.20;;;;;;;;;;6205707;23;20420;-87
2023/02/20 01:44:28;;;;;;;7.20;5.20;;;;;;;;;;6207799;23;20020;-87
2023/02/20 01:46:56;;;;;;;5.55;4.20;;;;;;;;;;6182926;23;20017;-86
2023/02/20 01:49:33;;;;;;;7.03;4.22;;;;;;;;;;6182058;23;20469;-87
2023/02/20 01:52:06;;;;;;;10.32;4.78;;;;;;;;;;6155578;23;20020;-87
2023/02/20 01:54:35;;;;;;;8.55;4.35;;;;;;;;;;6206736;23;20028;-87
2023/02/20 01:57:05;;;;;;;8.68;4.90;;;;;;;;;;6204367;23;20453;-87
2023/02/20 01:59:36;;;;;;;15.32;4.57;;;;;;;;;;6181016;23;20465;-87
2023/02/20 02:02:03;;;;;;;8.32;5.25;;;;;;;;;;6184562;23;20032;-87
2023/02/20 02:04:31;;;;;;;6.80;4.72;;;;;;;;;;6207244;23;20025;-87
2023/02/20 02:06:58;;;;;;;8.13;4.82;;;;;;;;;;6181263;23;20035;-87
2023/02/20 02:09:34;;;;;;;7.72;5.30;;;;;;;;;;6182078;23;20017;-86
2023/02/20 02:12:02;;;;;;;8.10;6.07;;;;;;;;;;6155661;23;20020;-87
2023/02/20 02:14:31;;;;;;;6.15;4.47;;;;;;;;;;6216344;23;20013;-87
2023/02/20 02:17:29;;;;;;;11.32;5.45;;;;;;;;;;6206851;23;20016;-87
2023/02/20 02:20:20;;;;;;;9.32;4.47;;;;;;;;;;6205753;23;20027;-87
2023/02/20 02:23:34;;;;;;;8.02;5.43;;;;;;;;;;6181575;23;20017;-87
2023/02/20 02:36:35;;;;;;;9.05;5.68;;;;;;;;;;6216983;22;20020;-87
2023/02/20 02:39:13;;;;;;;7.32;5.25;;;;;;;;;;6163445;23;20017;-88
2023/02/20 02:41:47;;;;;;;8.35;6.25;;;;;;;;;;6188619;23;20013;-88
2023/02/20 02:44:28;;;;;;;8.00;5.75;;;;;;;;;;6162308;23;20017;-88
2023/02/20 02:47:06;;;;;;;11.55;6.75;;;;;;;;;;6161954;23;20029;-88
2023/02/20 02:49:42;;;;;;;10.93;6.85;;;;;;;;;;6187591;23;20024;-88
2023/02/20 03:18:34;;;;;;;6.60;5.68;;;;;;;;;;6182713;23;20021;-90
2023/02/20 03:43:45;;;;;;;15.00;6.85;;;;;;;;;;6270220;22;20351;-90
2023/02/20 03:46:18;;;;;;;8.48;5.30;;;;;;;;;;6246686;22;20012;-90
2023/02/20 03:48:48;;;;;;;11.60;6.75;;;;;;;;;;6284994;22;20379;-91
2023/02/20 03:51:15;;;;;;;6.93;4.03;;;;;;;;;;6223371;22;20022;-90
2023/02/20 03:53:50;;;;;;;8.40;4.15;;;;;;;;;;6247637;22;20027;-91
2023/02/20 03:56:21;;;;;;;6.93;5.15;;;;;;;;;;6247913;22;20031;-91
2023/02/20 03:58:52;;;;;;;12.88;6.30;;;;;;;;;;6222873;22;20027;-90
2023/02/20 04:01:22;;;;;;;9.82;5.55;;;;;;;;;;6258291;22;20012;-91
2023/02/20 04:03:50;;;;;;;12.63;6.78;;;;;;;;;;6248858;22;20018;-90
2023/02/20 04:06:19;;;;;;;11.13;7.18;;;;;;;;;;6248263;22;20043;-91
2023/02/20 04:08:51;;;;;;;13.88;4.63;;;;;;;;;;6221445;22;20019;-90
2023/02/20 04:11:23;;;;;;;11.18;4.78;;;;;;;;;;6256898;22;20347;-90
2023/02/20 04:13:53;;;;;;;9.75;6.13;;;;;;;;;;6273268;22;20348;-90
2023/02/20 04:16:21;;;;;;;7.95;6.00;;;;;;;;;;6274059;22;20022;-89
2023/02/20 04:18:48;;;;;;;8.00;5.45;;;;;;;;;;6247769;22;20034;-90
2023/02/20 04:21:20;;;;;;;9.30;6.47;;;;;;;;;;6272484;22;20340;-90
2023/02/20 04:23:52;;;;;;;6.72;5.20;;;;;;;;;;6258660;22;20015;-90
2023/02/20 04:26:21;;;;;;;12.43;7.20;;;;;;;;;;6257946;22;20380;-89
2023/02/20 04:28:53;;;;;;;14.27;6.63;;;;;;;;;;6286261;22;20023;-89
2023/02/20 04:31:21;;;;;;;16.60;6.90;;;;;;;;;;6246262;22;20026;-90
2023/02/20 04:33:49;;;;;;;10.95;5.63;;;;;;;;;;6248048;22;20067;-90
2023/02/20 04:36:21;;;;;;;15.77;6.57;;;;;;;;;;6248063;22;20367;-90
2023/02/20 04:38:50;;;;;;;10.73;5.97;;;;;;;;;;6248473;22;20015;-90
2023/02/20 04:41:21;;;;;;;15.82;7.35;;;;;;;;;;6246423;22;20042;-90
2023/02/20 04:43:48;;;;;;;14.48;8.18;;;;;;;;;;6283721;22;20008;-90
2023/02/20 04:46:17;;;;;;;24.35;8.15;;;;;;;;;;6248097;22;20016;-90
2023/02/20 04:48:45;;;;;;;11.80;7.88;;;;;;;;;;6273788;22;20024;-90
2023/02/20 04:51:12;;;;;;;11.75;6.53;;;;;;;;;;6272265;22;20012;-90
2023/02/20 04:53:40;;;;;;;12.07;7.43;;;;;;;;;;6270541;22;20339;-91
2023/02/20 04:56:07;;;;;;;15.00;7.88;;;;;;;;;;6222432;22;20015;-92
2023/02/20 04:58:38;;;;;;;9.85;6.20;;;;;;;;;;6258282;22;20031;-92
2023/02/20 05:01:16;;;;;;;12.77;7.65;;;;;;;;;;6248140;22;20020;-92
2023/02/20 05:03:46;;;;;;;11.57;7.55;;;;;;;;;;6249585;22;20023;-91
2023/02/20 05:06:16;;;;;;;13.27;6.75;;;;;;;;;;6287859;22;20012;-92
2023/02/20 05:08:43;;;;;;;15.25;8.02;;;;;;;;;;6273995;22;20399;-91
2023/02/20 05:11:10;;;;;;;14.88;8.90;;;;;;;;;;6274125;22;20015;-91
2023/02/20 05:13:38;;;;;;;11.65;7.70;;;;;;;;;;6247583;22;20022;-92
2023/02/20 05:16:08;;;;;;;11.70;7.82;;;;;;;;;;6245998;22;20022;-91
2023/02/20 05:18:35;;;;;;;9.15;6.35;;;;;;;;;;6275138;22;20167;-89
2023/02/20 05:23:49;;;;;;;14.57;6.00;;;;;;;;;;6283398;22;20347;-89
2023/02/20 05:26:18;;;;;;;16.20;9.00;;;;;;;;;;6275091;22;20012;-88
2023/02/20 05:28:46;;;;;;;13.60;8.57;;;;;;;;;;6247656;22;20463;-89
2023/02/20 05:31:13;;;;;;;12.85;8.05;;;;;;;;;;6270264;22;20474;-89
2023/02/20 05:33:41;;;;;;;20.42;8.73;;;;;;;;;;6275202;22;20014;-89
2023/02/20 05:36:10;;;;;;;11.38;7.32;;;;;;;;;;6273404;22;20018;-89
2023/02/20 05:38:37;;;;;;;9.30;6.10;;;;;;;;;;6274232;22;20482;-89
2023/02/20 05:41:05;;;;;;;15.02;7.28;;;;;;;;;;6270933;22;20007;-89
2023/02/20 05:43:32;;;;;;;12.70;8.07;;;;;;;;;;6267145;22;20803;-89
2023/02/20 05:46:00;;;;;;;14.57;7.25;;;;;;;;;;6267512;22;20332;-89
2023/02/20 05:48:27;;;;;;;18.45;9.38;;;;;;;;;;6242004;22;20015;-89
2023/02/20 05:50:54;;;;;;;10.95;6.70;;;;;;;;;;6240789;22;20019;-88
2023/02/20 05:53:23;;;;;;;15.88;6.68;;;;;;;;;;6268589;22;20361;-88
2023/02/20 05:55:51;;;;;;;10.50;6.18;;;;;;;;;;6215451;22;20035;-88
2023/02/20 05:58:18;;;;;;;11.63;7.43;;;;;;;;;;6242020;22;20019;-88
2023/02/20 06:00:45;;;;;;;10.02;6.90;;;;;;;;;;6268881;22;20027;-88
2023/02/20 06:03:14;;;;;;;10.00;7.22;;;;;;;;;;6269229;22;20012;-89
2023/02/20 06:05:41;;;;;;;18.00;8.93;;;;;;;;;;6273038;22;20023;-89
2023/02/20 06:08:09;;;;;;;9.98;5.93;;;;;;;;;;6296278;22;19999;-89
2023/02/20 06:10:38;;;;;;;11.77;7.57;;;;;;;;;;6306406;22;20004;-88
2023/02/20 06:13:05;;;;;;;13.48;6.53;;;;;;;;;;6269154;22;20003;-89
2023/02/20 06:15:32;;;;;;;13.40;5.63;;;;;;;;;;6259871;22;20030;-88
2023/02/20 06:18:00;;;;;;;19.00;8.65;;;;;;;;;;6262557;22;20024;-88
2023/02/20 06:20:27;;;;;;;9.75;6.28;;;;;;;;;;6260877;22;20023;-88
2023/02/20 06:22:56;;;;;;;9.68;6.00;;;;;;;;;;6285360;22;20023;-88
2023/02/20 06:25:23;;;;;;;15.52;7.93;;;;;;;;;;6249302;22;20020;-88
2023/02/20 06:27:52;;;;;;;16.83;7.68;;;;;;;;;;6239126;22;20019;-89
2023/02/20 06:30:20;;;;;;;14.32;8.23;;;;;;;;;;6265340;22;20019;-89
2023/02/20 06:32:47;;;;;;;9.32;7.00;;;;;;;;;;6266018;22;20012;-88
2023/02/20 06:35:16;;;;;;;13.70;7.53;;;;;;;;;;6266007;22;20020;-89
2023/02/20 06:37:43;;;;;;;17.10;9.30;;;;;;;;;;6238815;22;20016;-88
2023/02/20 06:40:11;;;;;;;11.98;8.63;;;;;;;;;;6238920;22;20403;-89
2023/02/20 06:42:39;;;;;;;18.60;8.88;;;;;;;;;;6225775;22;20020;-89
2023/02/20 06:45:09;;;;;;;14.07;9.57;;;;;;;;;;6238915;22;20031;-88
2023/02/20 06:47:37;;;;;;;10.02;6.63;;;;;;;;;;6242866;22;20015;-88
2023/02/20 06:50:04;;;;;;;11.45;6.47;;;;;;;;;;6272502;22;20012;-89
2023/02/20 06:52:32;;;;;;;12.45;7.32;;;;;;;;;;6246779;22;20521;-89
2023/02/20 07:26:54;;;;;;;9.80;6.63;;;;;;;;;;6272579;22;20020;-90
2023/02/20 07:29:22;;;;;;;12.82;7.63;;;;;;;;;;6260189;22;20039;-89
2023/02/20 08:14:49;;;;;;;11.90;5.55;;;;;;;;;;6250555;22;20020;-89
2023/02/20 08:17:17;;;;;;;18.38;6.22;;;;;;;;;;6216445;23;20020;-88
2023/02/20 08:19:44;;;;;;;11.88;6.50;;;;;;;;;;6245718;23;20012;-88
2023/02/20 09:21:51;;;;;;;7.68;4.55;;;;;;;;;;6065586;23;20196;-87
2023/02/20 09:24:18;;;;;;;7.70;4.93;;;;;;;;;;6183475;23;20453;-87
2023/02/20 09:26:48;;;;;;;4.88;3.53;;;;;;;;;;6182416;23;20032;-87
2023/02/20 09:29:15;;;;;;;5.68;4.57;;;;;;;;;;6193635;23;20013;-87
2023/02/20 09:31:42;;;;;;;12.23;4.95;;;;;;;;;;6132989;23;20048;-87
2023/02/20 09:34:10;;;;;;;11.15;5.35;;;;;;;;;;6184651;23;20017;-87
2023/02/20 09:36:37;;;;;;;10.80;4.50;;;;;;;;;;6184162;23;20013;-87
2023/02/20 09:39:06;;;;;;;8.23;3.55;;;;;;;;;;6132309;23;20016;-87
2023/02/20 09:41:42;;;;;;;9.52;4.28;;;;;;;;;;6182523;23;20013;-87
2023/02/20 09:44:16;;;;;;;10.00;4.63;;;;;;;;;;6194052;23;20020;-87
2023/02/20 09:46:44;;;;;;;5.72;4.35;;;;;;;;;;6133708;23;20017;-87
2023/02/20 09:49:16;;;;;;;7.00;4.00;;;;;;;;;;6184404;23;20017;-87
2023/02/20 09:51:49;;;;;;;10.10;4.00;;;;;;;;;;6181026;23;20016;-87
2023/02/20 09:54:23;;;;;;;8.75;4.15;;;;;;;;;;6191155;23;20024;-87
2023/02/20 09:56:51;;;;;;;;;;;;;;;;;;6183731;23;20021;-87
2023/02/20 09:59:20;;;;;;;8.80;4.15;;;;;;;;;;6183145;23;19923;-87
2023/02/20 10:01:53;;;;;;;6.93;2.90;;;;;;;;;;6187371;23;20020;-86
2023/02/20 10:04:26;;;;;;;6.88;4.80;;;;;;;;;;6208236;23;20024;-87
2023/02/20 10:06:55;;;;;;;7.35;5.13;;;;;;;;;;6187525;23;20019;-87
2023/02/20 10:09:26;;;;;;;6.10;3.58;;;;;;;;;;6187013;23;20021;-87
2023/02/20 10:12:11;;;;;;;7.70;3.88;;;;;;;;;;6184065;23;20023;-87
2023/02/20 10:14:54;;;;;;;6.30;3.53;;;;;;;;;;6157712;23;20028;-87
2023/02/20 10:17:29;;;;;;;6.82;4.45;;;;;;;;;;6156544;23;20013;-87
2023/02/20 10:20:04;;;;;;;7.00;3.92;;;;;;;;;;6158705;23;20017;-87
2023/02/20 10:23:01;;;;;;;8.38;3.45;;;;;;;;;;6200183;22;20023;-90
2023/02/20 10:25:32;;;;;;;10.40;4.47;;;;;;;;;;6138381;23;20031;-89
2023/02/20 10:28:09;;;;;;;6.18;4.35;;;;;;;;;;6163743;23;20031;-90
2023/02/20 10:30:46;;;;;;;11.23;5.05;;;;;;;;;;6190494;23;20026;-88
2023/02/20 10:33:25;;;;;;;9.82;5.35;;;;;;;;;;6212672;23;20027;-89
2023/02/20 10:35:56;;;;;;;9.02;4.95;;;;;;;;;;6192149;23;20016;-90
2023/02/20 10:38:31;;;;;;;8.35;4.60;;;;;;;;;;6195294;23;20050;-89
2023/02/20 10:41:08;;;;;;;6.38;4.40;;;;;;;;;;6190684;23;20027;-89
2023/02/20 10:43:38;;;;;;;10.70;5.88;;;;;;;;;;6166254;23;20027;-89
2023/02/20 10:46:15;;;;;;;7.50;5.68;;;;;;;;;;6166043;23;20028;-89
2023/02/20 10:48:44;;;;;;;14.00;5.10;;;;;;;;;;6190118;23;20028;-88
2023/02/20 10:51:13;;;;;;;10.10;4.72;;;;;;;;;;6190392;23;20027;-88
2023/02/20 10:53:47;;;;;;;9.57;5.63;;;;;;;;;;6186891;23;20013;-88
2023/02/20 10:56:19;;;;;;;20.42;5.22;;;;;;;;;;6187597;23;20024;-88
2023/02/20 10:58:53;;;;;;;11.60;4.68;;;;;;;;;;6193426;23;20031;-88
2023/02/20 11:01:25;;;;;;;6.18;5.28;;;;;;;;;;6184067;23;20016;-88
2023/02/20 11:03:58;;;;;;;7.22;4.63;;;;;;;;;;6185165;23;20819;-88
2023/02/20 11:06:35;;;;;;;8.45;4.53;;;;;;;;;;6186993;23;20050;-88
2023/02/20 11:09:04;;;;;;;8.35;5.70;;;;;;;;;;6220980;23;20017;-88
2023/02/20 11:11:38;;;;;;;8.23;4.15;;;;;;;;;;6160927;23;20021;-90
2023/02/20 11:14:13;;;;;;;5.93;4.47;;;;;;;;;;6212626;23;20028;-90
2023/02/20 11:16:48;;;;;;;9.48;4.57;;;;;;;;;;6192370;23;20019;-90
2023/02/20 11:19:24;;;;;;;11.80;5.03;;;;;;;;;;6192123;23;20023;-89
2023/02/20 11:21:52;;;;;;;6.75;5.03;;;;;;;;;;6190580;23;20023;-89
2023/02/20 11:24:30;;;;;;;7.68;5.30;;;;;;;;;;6194334;23;20025;-89
2023/02/20 11:27:11;;;;;;;5.63;4.07;;;;;;;;;;6170675;23;20027;-89
2023/02/20 11:29:48;;;;;;;6.78;4.30;;;;;;;;;;6193938;23;20027;-89
2023/02/20 11:32:30;;;;;;;8.43;5.50;;;;;;;;;;6169963;23;20027;-91
2023/02/20 11:35:28;;;;;;;7.10;4.05;;;;;;;;;;6194485;23;20027;-89
2023/02/20 11:38:20;;;;;;;9.88;4.82;;;;;;;;;;6184168;23;20016;-91
2023/02/20 11:41:03;;;;;;;15.40;6.45;;;;;;;;;;6167419;23;20027;-91
2023/02/20 11:43:34;;;;;;;9.73;5.93;;;;;;;;;;6167947;23;20023;-90
2023/02/20 11:46:08;;;;;;;8.00;5.68;;;;;;;;;;6191715;23;20017;-93
2023/02/20 11:48:38;;;;;;;8.00;4.85;;;;;;;;;;6168850;23;20020;-91
2023/02/20 11:51:11;;;;;;;6.38;4.63;;;;;;;;;;6194273;23;20027;-91
2023/02/20 11:53:43;;;;;;;9.87;5.87;;;;;;;;;;6191937;23;20491;-89
2023/02/20 11:56:13;;;;;;;9.60;5.32;;;;;;;;;;6168221;23;20017;-91
2023/02/20 11:58:49;;;;;;;12.77;5.05;;;;;;;;;;6204525;23;20008;-90
2023/02/20 12:01:46;;;;;;;10.75;5.03;;;;;;;;;;6166446;23;20024;-90
2023/02/20 12:04:20;;;;;;;9.15;4.43;;;;;;;;;;6157041;23;20023;-89
2023/02/20 12:06:50;;;;;;;5.85;4.38;;;;;;;;;;6211480;23;20016;-88
2023/02/20 12:09:27;;;;;;;8.88;4.82;;;;;;;;;;6177243;23;20026;-90
2023/02/20 12:12:02;;;;;;;10.00;4.43;;;;;;;;;;6171420;23;20016;-90
2023/02/20 12:14:31;;;;;;;7.38;4.82;;;;;;;;;;6171580;23;20051;-88
2023/02/20 12:17:09;;;;;;;9.60;4.88;;;;;;;;;;6166121;23;20024;-90
2023/02/20 12:19:47;;;;;;;9.20;4.55;;;;;;;;;;6220820;23;20463;-89
2023/02/20 12:22:20;;;;;;;10.90;4.15;;;;;;;;;;6167744;23;20027;-89
2023/02/20 12:24:58;;;;;;;14.18;5.00;;;;;;;;;;6166044;23;20025;-91
2023/02/20 12:27:36;;;;;;;9.57;3.83;;;;;;;;;;6169091;23;20031;-89
2023/02/20 12:30:26;;;;;;;6.82;4.32;;;;;;;;;;6172263;23;20024;-90
2023/02/20 12:33:05;;;;;;;7.53;4.28;;;;;;;;;;6144064;23;20017;-91
2023/02/20 12:35:35;;;;;;;8.90;4.38;;;;;;;;;;6140936;23;20016;-90
2023/02/20 12:38:24;;;;;;;9.52;4.00;;;;;;;;;;6142467;23;20025;-91
2023/02/20 12:41:10;;;;;;;13.15;5.47;;;;;;;;;;6141606;23;20024;-90
2023/02/20 12:43:56;;;;;;;6.22;4.00;;;;;;;;;;6163723;23;20123;-90
2023/02/20 12:46:39;;;;;;;15.98;5.28;;;;;;;;;;6163511;23;20524;-90
2023/02/20 12:49:37;;;;;;;9.70;3.97;;;;;;;;;;6161795;23;20013;-90
2023/02/20 12:52:22;;;;;;;9.23;5.38;;;;;;;;;;6140426;23;20017;-89
2023/02/20 12:55:02;;;;;;;6.90;4.45;;;;;;;;;;6170595;23;20017;-92
2023/02/20 12:58:20;;;;;;;10.00;4.40;;;;;;;;;;6192810;23;20027;-92
2023/02/20 13:01:32;;;;;;;6.97;3.80;;;;;;;;;;6163879;23;20027;-89
2023/02/20 13:04:16;;;;;;;6.63;4.68;;;;;;;;;;6142593;23;20028;-90
2023/02/20 13:06:48;;;;;;;11.45;4.30;;;;;;;;;;6140807;23;20016;-91
2023/02/20 13:09:20;;;;;;;8.63;5.00;;;;;;;;;;6139918;23;20017;-89
2023/02/20 13:11:50;;;;;;;7.00;4.67;;;;;;;;;;6142098;23;20017;-89
2023/02/20 13:14:32;;;;;;;5.95;3.67;;;;;;;;;;6166721;23;20028;-89
2023/02/20 13:17:08;;;;;;;7.45;4.35;;;;;;;;;;6141932;23;20023;-89
2023/02/20 13:19:49;;;;;;;6.30;3.78;;;;;;;;;;6167809;23;20024;-89
2023/02/20 13:22:19;;;;;;;4.90;4.38;;;;;;;;;;6175186;23;20024;-90
2023/02/20 13:24:49;;;;;;;6.68;3.58;;;;;;;;;;6165817;23;20027;-92
2023/02/20 13:27:28;;;;;;;6.68;3.08;;;;;;;;;;6140610;23;20024;-90
2023/02/20 13:30:00;;;;;;;5.55;3.80;;;;;;;;;;6177925;23;20017;-92
2023/02/20 13:32:30;;;;;;;7.32;3.65;;;;;;;;;;6144930;23;20021;-90
2023/02/20 13:35:45;;;;;;;7.70;4.40;;;;;;;;;;6144912;23;20021;-92
2023/02/20 13:38:16;;;;;;;4.13;2.65;;;;;;;;;;6169962;23;20024;-91
2023/02/20 13:41:05;;;;;;;5.88;3.55;;;;;;;;;;6168743;23;20017;-88
2023/02/20 13:43:34;;;;;;;7.38;3.85;;;;;;;;;;6148047;23;20032;-91
2023/02/20 13:46:24;;;;;;;9.10;3.83;;;;;;;;;;6172889;23;20021;-90
2023/02/20 13:49:09;;;;;;;6.78;3.92;;;;;;;;;;6143012;23;20020;-92
2023/02/20 13:51:39;;;;;;;7.15;3.55;;;;;;;;;;6180097;23;20013;-90
2023/02/20 13:54:23;;;;;;;3.63;3.22;;;;;;;;;;6196063;23;20009;-90
2023/02/20 13:57:01;;;;;;;4.85;3.42;;;;;;;;;;6138047;23;20021;-89
2023/02/20 13:59:29;;;;;;;5.15;3.00;;;;;;;;;;6201502;23;20021;-91
2023/02/20 14:02:06;;;;;;;4.78;3.00;;;;;;;;;;6161932;23;20487;-88
2023/02/20 14:04:45;;;;;;;5.13;4.30;;;;;;;;;;6163135;23;20027;-91
2023/02/20 14:07:28;;;;;;;6.40;3.53;;;;;;;;;;6162744;23;20021;-89
2023/02/20 14:10:03;;;;;;;5.90;3.25;;;;;;;;;;6140096;23;20024;-91
2023/02/20 14:12:31;;;;;;;6.47;2.58;;;;;;;;;;6162168;23;20013;-91
2023/02/20 14:15:04;;;;;;;3.55;2.40;;;;;;;;;;6191133;23;20013;-91
2023/02/20 14:17:38;;;;;;;4.88;4.00;;;;;;;;;;6137269;23;20013;-88
2023/02/20 14:20:18;;;;;;;8.35;3.28;;;;;;;;;;6165550;23;20021;-89
2023/02/20 14:23:06;;;;;;;2.65;2.10;;;;;;;;;;6164124;23;20021;-91
2023/02/20 14:25:34;;;;;;;4.32;2.35;;;;;;;;;;6176211;23;20016;-88
2023/02/20 14:28:07;;;;;;;4.15;1.80;;;;;;;;;;6140720;23;20067;-91
2023/02/20 14:30:34;;;;;;;3.97;2.33;;;;;;;;;;6142079;23;20043;-91
2023/02/20 14:33:21;;;;;;;5.40;2.25;;;;;;;;;;6166183;23;20023;-91
2023/02/20 14:36:07;;;;;;;5.63;2.78;;;;;;;;;;6141535;23;20017;-90
2023/02/20 14:39:05;;;;;;;3.72;2.47;;;;;;;;;;6188517;23;20017;-90
2023/02/20 14:41:43;;;;;;;8.27;2.60;;;;;;;;;;6161809;23;20012;-91
2023/02/20 14:44:25;;;;;;;12.48;3.05;;;;;;;;;;6192744;23;20017;-91
2023/02/20 14:47:43;;;;;;;3.15;2.15;;;;;;;;;;6194850;23;20028;-89
2023/02/20 14:50:46;;;;;;;3.08;1.88;;;;;;;;;;6195971;23;20025;-91
2023/02/20 14:53:15;;;;;;;6.25;3.00;;;;;;;;;;6190162;22;20016;-89
2023/02/20 14:55:44;;;;;;;4.57;2.05;;;;;;;;;;6216202;23;20043;-90
2023/02/20 14:58:14;;;;;;;5.45;2.45;;;;;;;;;;6241846;23;20016;-89
2023/02/20 15:00:43;;;;;;;3.67;2.45;;;;;;;;;;6242184;23;20012;-90
2023/02/20 15:03:18;;;;;;;6.35;2.53;;;;;;;;;;6212069;23;20360;-89
2023/02/20 15:05:46;;;;;;;2.97;2.22;;;;;;;;;;6223115;23;20039;-89
2023/02/20 15:08:20;;;;;;;2.67;1.98;;;;;;;;;;6212920;23;20020;-89
2023/02/20 15:10:51;;;;;;;5.03;2.40;;;;;;;;;;6246680;23;20017;-90
2023/02/20 15:13:20;;;;;;;3.75;1.95;;;;;;;;;;6211039;23;20023;-89
2023/02/20 15:15:50;;;;;;;2.90;1.88;;;;;;;;;;6212007;23;20024;-90
2023/02/20 15:18:33;;;;;;;2.88;2.60;;;;;;;;;;6237063;23;20321;-90
2023/02/20 15:21:06;;;;;;;2.95;1.80;;;;;;;;;;6245866;23;20345;-90
2023/02/20 15:23:35;;;;;;;4.68;2.10;;;;;;;;;;6239886;23;20456;-90
2023/02/20 15:26:28;;;;;;;4.10;1.85;;;;;;;;;;6212546;23;20013;-90
2023/02/20 15:29:21;;;;;;;6.28;2.45;;;;;;;;;;6224072;23;20048;-90
2023/02/20 15:31:55;;;;;;;5.18;2.42;;;;;;;;;;6221821;23;20340;-90
2023/02/20 15:34:25;;;;;;;3.08;2.17;;;;;;;;;;6211934;23;20027;-90
2023/02/20 15:40:48;;;;;;;4.05;1.80;;;;;;;;;;6208979;23;20369;-90
2023/02/20 15:43:19;;;;;;;10.27;2.42;;;;;;;;;;6242575;23;20036;-89
2023/02/20 15:45:47;;;;;;;5.78;2.05;;;;;;;;;;6212705;23;20024;-89
2023/02/20 15:48:30;;;;;;;2.65;1.83;;;;;;;;;;6214782;23;20013;-90
2023/02/20 15:51:00;;;;;;;4.95;2.35;;;;;;;;;;6223546;23;20460;-90
2023/02/20 15:53:29;;;;;;;3.70;2.20;;;;;;;;;;6238068;23;20012;-90
2023/02/20 15:58:53;;;;;;;3.58;1.80;;;;;;;;;;6093726;23;20481;-90
2023/02/20 16:01:37;;;;;;;5.60;2.70;;;;;;;;;;6203080;23;20016;-90
2023/02/20 16:04:06;;;;;;;9.48;2.40;;;;;;;;;;6213968;23;20012;-89
2023/02/20 16:06:36;;;;;;;4.63;2.55;;;;;;;;;;6214290;23;20028;-93
2023/02/20 16:09:04;;;;;;;4.28;2.13;;;;;;;;;;6214699;23;20028;-90
2023/02/20 16:11:35;;;;;;;4.60;1.75;;;;;;;;;;6212581;23;20024;-90
2023/02/20 17:43:33;;;;;;;5.28;3.50;;;;;;;;;;6182367;23;20028;-89
2023/02/20 17:46:01;;;;;;;6.65;3.90;;;;;;;;;;6156868;23;20028;-89
2023/02/20 17:48:28;;;;;;;7.47;4.40;;;;;;;;;;6183849;23;20035;-89
2023/02/20 17:50:55;;;;;;;6.38;4.93;;;;;;;;;;6184410;23;20016;-89
2023/02/20 17:53:23;;;;;;;7.68;4.60;;;;;;;;;;6182976;23;20040;-89
2023/02/20 17:55:50;;;;;;;8.90;5.15;;;;;;;;;;6176148;23;20005;-90
2023/02/20 17:58:18;;;;;;;6.82;4.53;;;;;;;;;;6176450;23;20011;-88
2023/02/20 18:00:46;;;;;;;6.28;4.70;;;;;;;;;;6177119;23;20744;-88
2023/02/20 18:03:14;;;;;;;8.25;4.95;;;;;;;;;;6161374;23;20021;-88
2023/02/20 18:05:41;;;;;;;9.05;4.75;;;;;;;;;;6175189;23;20021;-89
2023/02/20 18:08:09;;;;;;;11.77;6.32;;;;;;;;;;6149645;23;20052;-89
2023/02/20 18:10:36;;;;;;;6.35;4.65;;;;;;;;;;6149283;23;20017;-89
2023/02/20 18:13:03;;;;;;;6.07;5.25;;;;;;;;;;6175534;23;20021;-89
2023/02/20 18:15:31;;;;;;;9.15;6.07;;;;;;;;;;6148711;23;20017;-90
2023/02/20 18:18:00;;;;;;;17.17;6.00;;;;;;;;;;6174233;23;20017;-89
2023/02/20 18:20:28;;;;;;;7.18;4.60;;;;;;;;;;6174765;23;20032;-89
2023/02/20 18:22:56;;;;;;;7.45;3.88;;;;;;;;;;6147736;23;20024;-88
2023/02/20 18:25:25;;;;;;;11.07;6.90;;;;;;;;;;6155342;23;20021;-88
2023/02/20 18:27:52;;;;;;;10.82;6.60;;;;;;;;;;6182338;23;20013;-88
2023/02/20 18:30:20;;;;;;;20.95;10.77;;;;;;;;;;6157138;23;20017;-88
2023/02/20 18:32:47;;;;;;;13.15;9.15;;;;;;;;;;6181235;23;20476;-89
2023/02/20 18:35:17;;;;;;;9.40;7.05;;;;;;;;;;6154944;23;20032;-89
2023/02/20 18:37:45;;;;;;;7.60;4.40;;;;;;;;;;6156820;23;20465;-90
2023/02/20 18:40:12;;;;;;;9.35;6.40;;;;;;;;;;6155940;23;20040;-89
2023/02/20 18:42:40;;;;;;;8.00;4.90;;;;;;;;;;6180963;23;20013;-89
2023/02/20 18:45:07;;;;;;;9.93;5.63;;;;;;;;;;6157720;23;20025;-89
2023/02/20 18:47:35;;;;;;;7.82;5.63;;;;;;;;;;6177859;23;20481;-88
2023/02/20 18:50:03;;;;;;;8.32;5.72;;;;;;;;;;6200305;23;20017;-88
2023/02/20 18:52:32;;;;;;;10.18;5.97;;;;;;;;;;6199367;23;20023;-89
2023/02/20 18:54:59;;;;;;;11.05;7.25;;;;;;;;;;6187982;23;20467;-89
2023/02/20 18:57:26;;;;;;;8.48;5.55;;;;;;;;;;6174419;23;20020;-89
2023/02/20 18:59:54;;;;;;;10.02;5.07;;;;;;;;;;6176010;23;20025;-89
2023/02/20 19:02:21;;;;;;;9.35;6.05;;;;;;;;;;6152301;23;20021;-88
2023/02/20 19:04:49;;;;;;;6.60;5.82;;;;;;;;;;6167361;23;20021;-88
2023/02/20 19:07:16;;;;;;;13.65;6.70;;;;;;;;;;6183479;23;20436;-89
2023/02/20 19:09:45;;;;;;;12.63;6.80;;;;;;;;;;6126765;23;20043;-88
2023/02/20 19:12:13;;;;;;;13.32;5.57;;;;;;;;;;6179327;23;20024;-88
2023/02/20 19:14:40;;;;;;;11.50;6.13;;;;;;;;;;6151656;23;20021;-89
2023/02/20 19:17:07;;;;;;;11.77;5.65;;;;;;;;;;6177137;23;20017;-90
2023/02/20 19:19:35;;;;;;;10.32;7.25;;;;;;;;;;6177555;23;20013;-90
2023/02/20 19:22:02;;;;;;;10.45;5.13;;;;;;;;;;6178365;23;20017;-89
2023/02/20 19:24:30;;;;;;;8.80;6.10;;;;;;;;;;6177809;23;20036;-89
2023/02/20 19:26:59;;;;;;;8.25;5.97;;;;;;;;;;6152203;23;20488;-88
2023/02/20 19:29:26;;;;;;;5.80;5.15;;;;;;;;;;6126641;23;20338;-90
2023/02/20 19:31:54;;;;;;;8.20;5.30;;;;;;;;;;6151802;23;20326;-88
2023/02/20 19:34:21;;;;;;;7.10;4.90;;;;;;;;;;6178784;23;20020;-90
2023/02/20 19:36:48;;;;;;;6.40;5.35;;;;;;;;;;6177969;23;20017;-90
2023/02/20 19:39:16;;;;;;;7.80;6.45;;;;;;;;;;6176709;23;20017;-90
2023/02/20 19:41:43;;;;;;;10.55;7.35;;;;;;;;;;6183363;23;20473;-90
2023/02/20 19:44:15;;;;;;;13.70;7.38;;;;;;;;;;6176669;23;20279;-89
2023/02/20 19:46:43;;;;;;;17.15;8.57;;;;;;;;;;6189442;23;20020;-89
2023/02/20 19:49:11;;;;;;;12.50;10.43;;;;;;;;;;6177615;23;20376;-89
2023/02/20 19:51:39;;;;;;;10.65;7.38;;;;;;;;;;6177438;23;20457;-89
2023/02/20 19:54:06;;;;;;;12.85;7.97;;;;;;;;;;6149153;23;20025;-90
2023/02/20 19:56:33;;;;;;;12.13;7.75;;;;;;;;;;6150657;23;20016;-88
2023/02/20 19:59:01;;;;;;;8.70;6.85;;;;;;;;;;6176204;23;20021;-89
2023/02/20 20:01:33;;;;;;;9.82;6.18;;;;;;;;;;6189242;23;20020;-88